Kezdőlap
METAR-TAF:

METAR-TAF

Repülőterek :

N’djili nemzetközi repülőtér

Kinshasa, Kongó

földrajzi szélesség: 04-23S, földrajzi hosszúság: 015-26E, magasság: 309 m

Jelenlegi meteorológiai megfigyelések

A jelentés 1 órával és 43 perccel ezelõtt készült, 23:30 UTC
Dél-délnyugati szél 6 kt
Hőmérséklet 23°C
Páratartalom 69%
Légköri nyomás 1015 hPa
Látótávolság: 6000 m

METAR: FZAA 202330Z 20006KT 6000 NSC 23/17 Q1015 NOSIG

Idő: 02:13 (01:13 UTC)

Előrejelzés

A jelentés 2 órával és 13 perccel ezelõtt készült, 23:00 UTC
Az előrejelzés 21-én 00 óra UTC és 22-én 06 óra UTC között érvényes
Nyugat-délnyugati szél 6 kt
Látótávolság: 6000 m
Szórványos felhőzet 1800 lábon
21-én 04 óra UTC és 21-én 08 óra UTC között ideiglenes
Látótávolság: 3000 m
Szakadozott felhőzet 1400 lábon
Párásság,

TAF: FZAA 202300Z 2100/2206 24006KT 6000 SCT018 TEMPO 2104/2108 3000 BR BKN014

Meteorológiai megfigyelések és előrejelzések több, mint 4000 repülőtéren (METAR és TAF jelentéseket).

A térképen piros és sárga pontok jelzik az elérhető meteorológiai állomásokat.

Mozgassa az egeret a pont fölött, hogy megjelenjen az állomás neve.

Azután kattintson az időjárási megfigyelések és előrejelzések megtekintéséhez.

A térkép megváltoztatása: kattintson a fekete keresztel jelölt zöld gombra ráközelítéshez, a vonallal jelölt zöld gombra távolításhoz, vagy a zöld nyilakra a szomszédos térképek eléréséhez.


METAR-TAF: